sensor_id;sensor_type;location;lat;lon;timestamp;P1;durP1;ratioP1;P2;durP2;ratioP2
2546;SDS011;1283;47.982;7.834;2022-08-05T00:01:09;2.45;;;1.85;;
2546;SDS011;1283;47.982;7.834;2022-08-05T00:03:38;4.22;;;2.30;;
2546;SDS011;1283;47.982;7.834;2022-08-05T00:06:04;3.95;;;2.13;;
2546;SDS011;1283;47.982;7.834;2022-08-05T00:08:31;4.03;;;2.45;;
2546;SDS011;1283;47.982;7.834;2022-08-05T00:10:57;4.35;;;2.03;;
2546;SDS011;1283;47.982;7.834;2022-08-05T00:13:24;9.13;;;2.50;;
2546;SDS011;1283;47.982;7.834;2022-08-05T00:15:51;4.45;;;2.00;;
2546;SDS011;1283;47.982;7.834;2022-08-05T00:18:17;4.22;;;2.00;;
2546;SDS011;1283;47.982;7.834;2022-08-05T00:20:45;3.45;;;1.83;;
2546;SDS011;1283;47.982;7.834;2022-08-05T00:23:12;6.80;;;2.20;;
2546;SDS011;1283;47.982;7.834;2022-08-05T00:25:38;2.53;;;2.25;;
2546;SDS011;1283;47.982;7.834;2022-08-05T00:28:04;3.15;;;2.28;;
2546;SDS011;1283;47.982;7.834;2022-08-05T00:30:32;5.72;;;2.08;;
2546;SDS011;1283;47.982;7.834;2022-08-05T00:32:58;4.57;;;2.20;;
2546;SDS011;1283;47.982;7.834;2022-08-05T00:35:25;2.25;;;1.95;;
2546;SDS011;1283;47.982;7.834;2022-08-05T00:37:53;5.22;;;2.28;;
2546;SDS011;1283;47.982;7.834;2022-08-05T00:40:19;2.83;;;2.30;;
2546;SDS011;1283;47.982;7.834;2022-08-05T00:42:47;4.93;;;2.10;;
2546;SDS011;1283;47.982;7.834;2022-08-05T00:45:13;4.07;;;2.83;;
2546;SDS011;1283;47.982;7.834;2022-08-05T00:47:40;8.48;;;2.50;;
2546;SDS011;1283;47.982;7.834;2022-08-05T00:50:07;4.22;;;2.13;;
2546;SDS011;1283;47.982;7.834;2022-08-05T00:52:33;5.93;;;2.20;;
2546;SDS011;1283;47.982;7.834;2022-08-05T00:55:02;4.10;;;2.20;;
2546;SDS011;1283;47.982;7.834;2022-08-05T00:57:29;8.80;;;2.83;;
2546;SDS011;1283;47.982;7.834;2022-08-05T00:59:56;5.75;;;1.88;;
2546;SDS011;1283;47.982;7.834;2022-08-05T01:02:22;2.70;;;2.17;;
2546;SDS011;1283;47.982;7.834;2022-08-05T01:04:48;5.43;;;2.10;;
2546;SDS011;1283;47.982;7.834;2022-08-05T01:07:15;3.55;;;1.90;;
2546;SDS011;1283;47.982;7.834;2022-08-05T01:09:41;4.78;;;2.35;;
2546;SDS011;1283;47.982;7.834;2022-08-05T01:12:10;7.00;;;2.03;;
2546;SDS011;1283;47.982;7.834;2022-08-05T01:14:40;3.40;;;1.92;;
2546;SDS011;1283;47.982;7.834;2022-08-05T01:17:11;3.05;;;2.00;;
2546;SDS011;1283;47.982;7.834;2022-08-05T01:19:41;6.68;;;1.90;;
2546;SDS011;1283;47.982;7.834;2022-08-05T01:22:27;4.60;;;1.92;;
2546;SDS011;1283;47.982;7.834;2022-08-05T01:25:12;2.33;;;1.80;;
2546;SDS011;1283;47.982;7.834;2022-08-05T01:28:08;4.68;;;2.03;;
2546;SDS011;1283;47.982;7.834;2022-08-05T01:30:41;4.50;;;1.90;;
2546;SDS011;1283;47.982;7.834;2022-08-05T01:33:11;5.53;;;2.28;;
2546;SDS011;1283;47.982;7.834;2022-08-05T01:35:39;8.07;;;1.90;;
2546;SDS011;1283;47.982;7.834;2022-08-05T01:38:07;6.35;;;2.08;;
2546;SDS011;1283;47.982;7.834;2022-08-05T01:40:35;2.25;;;1.65;;
2546;SDS011;1283;47.982;7.834;2022-08-05T01:43:03;3.35;;;2.00;;
2546;SDS011;1283;47.982;7.834;2022-08-05T01:45:32;5.38;;;2.22;;
2546;SDS011;1283;47.982;7.834;2022-08-05T01:47:59;6.60;;;1.95;;
2546;SDS011;1283;47.982;7.834;2022-08-05T01:50:28;5.32;;;2.30;;
2546;SDS011;1283;47.982;7.834;2022-08-05T01:52:58;5.93;;;1.88;;
2546;SDS011;1283;47.982;7.834;2022-08-05T01:55:26;2.15;;;1.63;;
2546;SDS011;1283;47.982;7.834;2022-08-05T01:57:54;2.83;;;2.00;;
2546;SDS011;1283;47.982;7.834;2022-08-05T02:00:22;3.40;;;2.15;;
2546;SDS011;1283;47.982;7.834;2022-08-05T02:02:51;2.20;;;1.60;;
2546;SDS011;1283;47.982;7.834;2022-08-05T02:05:21;6.40;;;1.83;;
2546;SDS011;1283;47.982;7.834;2022-08-05T02:07:48;4.22;;;1.98;;
2546;SDS011;1283;47.982;7.834;2022-08-05T02:10:15;4.03;;;1.90;;
2546;SDS011;1283;47.982;7.834;2022-08-05T02:12:42;2.22;;;1.75;;
2546;SDS011;1283;47.982;7.834;2022-08-05T02:15:12;3.45;;;1.98;;
2546;SDS011;1283;47.982;7.834;2022-08-05T02:17:44;3.45;;;1.85;;
2546;SDS011;1283;47.982;7.834;2022-08-05T02:20:18;6.43;;;1.98;;
2546;SDS011;1283;47.982;7.834;2022-08-05T02:22:47;3.08;;;1.70;;
2546;SDS011;1283;47.982;7.834;2022-08-05T02:25:18;6.95;;;2.22;;
2546;SDS011;1283;47.982;7.834;2022-08-05T02:27:47;1.98;;;1.75;;
2546;SDS011;1283;47.982;7.834;2022-08-05T02:30:14;8.82;;;1.83;;
2546;SDS011;1283;47.982;7.834;2022-08-05T02:32:41;8.27;;;2.35;;
2546;SDS011;1283;47.982;7.834;2022-08-05T02:35:09;10.98;;;2.10;;
2546;SDS011;1283;47.982;7.834;2022-08-05T02:37:39;3.58;;;2.30;;
2546;SDS011;1283;47.982;7.834;2022-08-05T02:40:07;4.85;;;2.30;;
2546;SDS011;1283;47.982;7.834;2022-08-05T02:42:35;6.45;;;2.55;;
2546;SDS011;1283;47.982;7.834;2022-08-05T02:45:02;6.00;;;2.45;;
2546;SDS011;1283;47.982;7.834;2022-08-05T02:47:30;7.60;;;2.10;;
2546;SDS011;1283;47.982;7.834;2022-08-05T02:49:59;5.57;;;2.42;;
2546;SDS011;1283;47.982;7.834;2022-08-05T02:52:25;5.00;;;2.70;;
2546;SDS011;1283;47.982;7.834;2022-08-05T02:54:54;4.13;;;2.58;;
2546;SDS011;1283;47.982;7.834;2022-08-05T02:57:20;2.88;;;2.20;;
2546;SDS011;1283;47.982;7.834;2022-08-05T02:59:48;4.70;;;2.67;;
2546;SDS011;1283;47.982;7.834;2022-08-05T03:02:16;2.60;;;2.05;;
2546;SDS011;1283;47.982;7.834;2022-08-05T03:04:44;3.65;;;2.45;;
2546;SDS011;1283;47.982;7.834;2022-08-05T03:07:11;4.78;;;2.30;;
2546;SDS011;1283;47.982;7.834;2022-08-05T03:09:38;2.45;;;2.08;;
2546;SDS011;1283;47.982;7.834;2022-08-05T03:12:10;5.93;;;2.38;;
2546;SDS011;1283;47.982;7.834;2022-08-05T03:14:54;3.47;;;2.58;;
2546;SDS011;1283;47.982;7.834;2022-08-05T03:17:20;6.95;;;2.50;;
2546;SDS011;1283;47.982;7.834;2022-08-05T03:19:47;4.93;;;2.53;;
2546;SDS011;1283;47.982;7.834;2022-08-05T03:22:13;2.65;;;2.42;;
2546;SDS011;1283;47.982;7.834;2022-08-05T03:24:40;6.30;;;3.10;;
2546;SDS011;1283;47.982;7.834;2022-08-05T03:27:06;8.10;;;2.45;;
2546;SDS011;1283;47.982;7.834;2022-08-05T03:29:34;5.10;;;2.63;;
2546;SDS011;1283;47.982;7.834;2022-08-05T03:32:01;10.10;;;2.75;;
2546;SDS011;1283;47.982;7.834;2022-08-05T03:34:28;5.80;;;2.70;;
2546;SDS011;1283;47.982;7.834;2022-08-05T03:36:55;7.82;;;2.90;;
2546;SDS011;1283;47.982;7.834;2022-08-05T03:39:21;2.30;;;2.10;;
2546;SDS011;1283;47.982;7.834;2022-08-05T03:41:48;4.82;;;2.40;;
2546;SDS011;1283;47.982;7.834;2022-08-05T03:44:14;4.28;;;2.85;;
2546;SDS011;1283;47.982;7.834;2022-08-05T03:46:42;3.45;;;2.42;;
2546;SDS011;1283;47.982;7.834;2022-08-05T03:49:08;6.65;;;2.35;;
2546;SDS011;1283;47.982;7.834;2022-08-05T03:51:37;4.28;;;2.72;;
2546;SDS011;1283;47.982;7.834;2022-08-05T03:54:06;5.00;;;2.30;;
2546;SDS011;1283;47.982;7.834;2022-08-05T03:56:35;7.80;;;2.30;;
2546;SDS011;1283;47.982;7.834;2022-08-05T03:59:05;7.18;;;2.50;;
2546;SDS011;1283;47.982;7.834;2022-08-05T04:01:34;3.97;;;2.35;;
2546;SDS011;1283;47.982;7.834;2022-08-05T04:04:03;2.85;;;1.92;;
2546;SDS011;1283;47.982;7.834;2022-08-05T04:06:30;3.67;;;2.03;;
2546;SDS011;1283;47.982;7.834;2022-08-05T04:08:58;12.65;;;2.58;;
2546;SDS011;1283;47.982;7.834;2022-08-05T04:11:25;4.63;;;2.42;;
2546;SDS011;1283;47.982;7.834;2022-08-05T04:13:51;2.80;;;2.10;;
2546;SDS011;1283;47.982;7.834;2022-08-05T04:16:18;11.15;;;2.63;;
2546;SDS011;1283;47.982;7.834;2022-08-05T04:18:44;3.78;;;2.20;;
2546;SDS011;1283;47.982;7.834;2022-08-05T04:21:12;3.35;;;2.10;;
2546;SDS011;1283;47.982;7.834;2022-08-05T04:23:39;3.20;;;2.15;;
2546;SDS011;1283;47.982;7.834;2022-08-05T04:26:05;10.48;;;2.08;;
2546;SDS011;1283;47.982;7.834;2022-08-05T04:28:32;4.15;;;1.77;;
2546;SDS011;1283;47.982;7.834;2022-08-05T04:30:58;4.05;;;2.00;;
2546;SDS011;1283;47.982;7.834;2022-08-05T04:33:25;8.27;;;2.35;;
2546;SDS011;1283;47.982;7.834;2022-08-05T04:35:52;10.63;;;2.20;;
2546;SDS011;1283;47.982;7.834;2022-08-05T04:38:20;4.88;;;2.83;;
2546;SDS011;1283;47.982;7.834;2022-08-05T04:40:46;5.10;;;2.40;;
2546;SDS011;1283;47.982;7.834;2022-08-05T04:43:12;2.83;;;2.25;;
2546;SDS011;1283;47.982;7.834;2022-08-05T04:45:39;5.72;;;2.38;;
2546;SDS011;1283;47.982;7.834;2022-08-05T04:48:06;7.93;;;3.05;;
2546;SDS011;1283;47.982;7.834;2022-08-05T04:50:40;8.65;;;3.00;;
2546;SDS011;1283;47.982;7.834;2022-08-05T04:53:08;5.85;;;2.17;;
2546;SDS011;1283;47.982;7.834;2022-08-05T04:55:37;4.15;;;2.38;;
2546;SDS011;1283;47.982;7.834;2022-08-05T04:58:05;13.73;;;3.08;;
2546;SDS011;1283;47.982;7.834;2022-08-05T05:00:34;5.35;;;3.03;;
2546;SDS011;1283;47.982;7.834;2022-08-05T05:03:01;15.55;;;2.70;;
2546;SDS011;1283;47.982;7.834;2022-08-05T05:05:28;6.25;;;2.63;;
2546;SDS011;1283;47.982;7.834;2022-08-05T05:07:55;9.88;;;2.58;;
2546;SDS011;1283;47.982;7.834;2022-08-05T05:10:22;8.45;;;2.85;;
2546;SDS011;1283;47.982;7.834;2022-08-05T05:12:49;6.90;;;2.55;;
2546;SDS011;1283;47.982;7.834;2022-08-05T05:15:16;12.27;;;2.63;;
2546;SDS011;1283;47.982;7.834;2022-08-05T05:17:42;12.35;;;2.80;;
2546;SDS011;1283;47.982;7.834;2022-08-05T05:20:09;7.13;;;2.95;;
2546;SDS011;1283;47.982;7.834;2022-08-05T05:22:36;7.65;;;2.50;;
2546;SDS011;1283;47.982;7.834;2022-08-05T05:25:03;6.32;;;2.53;;
2546;SDS011;1283;47.982;7.834;2022-08-05T05:27:31;7.78;;;2.50;;
2546;SDS011;1283;47.982;7.834;2022-08-05T05:30:00;15.48;;;2.45;;
2546;SDS011;1283;47.982;7.834;2022-08-05T05:32:26;5.80;;;2.95;;
2546;SDS011;1283;47.982;7.834;2022-08-05T05:34:53;8.18;;;2.58;;
2546;SDS011;1283;47.982;7.834;2022-08-05T05:37:19;5.90;;;2.30;;
2546;SDS011;1283;47.982;7.834;2022-08-05T05:39:46;11.60;;;2.25;;
2546;SDS011;1283;47.982;7.834;2022-08-05T05:42:12;9.35;;;2.40;;
2546;SDS011;1283;47.982;7.834;2022-08-05T05:44:39;5.70;;;2.00;;
2546;SDS011;1283;47.982;7.834;2022-08-05T05:47:07;5.68;;;2.60;;
2546;SDS011;1283;47.982;7.834;2022-08-05T05:49:34;9.43;;;2.58;;
2546;SDS011;1283;47.982;7.834;2022-08-05T05:52:00;8.38;;;2.58;;
2546;SDS011;1283;47.982;7.834;2022-08-05T05:54:26;11.77;;;2.47;;
2546;SDS011;1283;47.982;7.834;2022-08-05T05:56:53;3.30;;;2.03;;
2546;SDS011;1283;47.982;7.834;2022-08-05T05:59:19;15.63;;;2.30;;
2546;SDS011;1283;47.982;7.834;2022-08-05T06:01:46;13.13;;;2.53;;
2546;SDS011;1283;47.982;7.834;2022-08-05T06:04:13;4.07;;;1.90;;
2546;SDS011;1283;47.982;7.834;2022-08-05T06:06:40;7.10;;;2.08;;
2546;SDS011;1283;47.982;7.834;2022-08-05T06:09:07;4.60;;;2.10;;
2546;SDS011;1283;47.982;7.834;2022-08-05T06:11:34;7.13;;;2.13;;
2546;SDS011;1283;47.982;7.834;2022-08-05T06:14:00;5.13;;;2.03;;
2546;SDS011;1283;47.982;7.834;2022-08-05T06:16:27;5.95;;;2.38;;
2546;SDS011;1283;47.982;7.834;2022-08-05T06:18:54;4.90;;;2.10;;
2546;SDS011;1283;47.982;7.834;2022-08-05T06:21:21;11.77;;;2.38;;
2546;SDS011;1283;47.982;7.834;2022-08-05T06:23:48;8.77;;;2.35;;
2546;SDS011;1283;47.982;7.834;2022-08-05T06:26:14;12.38;;;2.35;;
2546;SDS011;1283;47.982;7.834;2022-08-05T06:28:42;5.13;;;2.30;;
2546;SDS011;1283;47.982;7.834;2022-08-05T06:31:08;6.47;;;2.00;;
2546;SDS011;1283;47.982;7.834;2022-08-05T06:33:35;8.25;;;2.00;;
2546;SDS011;1283;47.982;7.834;2022-08-05T06:36:01;5.03;;;2.10;;
2546;SDS011;1283;47.982;7.834;2022-08-05T06:38:29;11.20;;;2.38;;
2546;SDS011;1283;47.982;7.834;2022-08-05T06:40:57;2.97;;;1.90;;
2546;SDS011;1283;47.982;7.834;2022-08-05T06:43:23;8.32;;;2.15;;
2546;SDS011;1283;47.982;7.834;2022-08-05T06:45:50;3.72;;;2.10;;
2546;SDS011;1283;47.982;7.834;2022-08-05T06:48:17;6.38;;;2.20;;
2546;SDS011;1283;47.982;7.834;2022-08-05T06:50:43;7.80;;;2.13;;
2546;SDS011;1283;47.982;7.834;2022-08-05T06:53:09;8.93;;;2.20;;
2546;SDS011;1283;47.982;7.834;2022-08-05T06:55:39;4.40;;;2.00;;
2546;SDS011;1283;47.982;7.834;2022-08-05T06:58:05;5.68;;;1.83;;
2546;SDS011;1283;47.982;7.834;2022-08-05T07:00:31;4.10;;;2.25;;
2546;SDS011;1283;47.982;7.834;2022-08-05T07:02:58;4.45;;;2.10;;
2546;SDS011;1283;47.982;7.834;2022-08-05T07:05:25;7.63;;;2.00;;
2546;SDS011;1283;47.982;7.834;2022-08-05T07:07:51;12.60;;;2.30;;
2546;SDS011;1283;47.982;7.834;2022-08-05T07:10:18;5.70;;;2.28;;
2546;SDS011;1283;47.982;7.834;2022-08-05T07:12:45;14.82;;;2.78;;
2546;SDS011;1283;47.982;7.834;2022-08-05T07:15:29;9.32;;;2.53;;
2546;SDS011;1283;47.982;7.834;2022-08-05T07:18:13;4.63;;;2.55;;
2546;SDS011;1283;47.982;7.834;2022-08-05T07:20:40;13.68;;;3.13;;
2546;SDS011;1283;47.982;7.834;2022-08-05T07:23:06;5.55;;;2.17;;
2546;SDS011;1283;47.982;7.834;2022-08-05T07:25:32;6.40;;;2.10;;
2546;SDS011;1283;47.982;7.834;2022-08-05T07:28:00;5.65;;;2.10;;
2546;SDS011;1283;47.982;7.834;2022-08-05T07:30:26;9.77;;;2.03;;
2546;SDS011;1283;47.982;7.834;2022-08-05T07:32:53;7.00;;;2.58;;
2546;SDS011;1283;47.982;7.834;2022-08-05T07:35:19;6.13;;;1.90;;
2546;SDS011;1283;47.982;7.834;2022-08-05T07:37:46;5.95;;;2.20;;
2546;SDS011;1283;47.982;7.834;2022-08-05T07:40:12;7.40;;;2.08;;
2546;SDS011;1283;47.982;7.834;2022-08-05T07:42:38;10.57;;;2.25;;
2546;SDS011;1283;47.982;7.834;2022-08-05T07:45:07;2.97;;;2.20;;
2546;SDS011;1283;47.982;7.834;2022-08-05T07:47:34;3.38;;;1.90;;
2546;SDS011;1283;47.982;7.834;2022-08-05T07:50:00;5.07;;;2.20;;
2546;SDS011;1283;47.982;7.834;2022-08-05T07:52:27;2.90;;;1.90;;
2546;SDS011;1283;47.982;7.834;2022-08-05T07:54:53;4.80;;;2.30;;
2546;SDS011;1283;47.982;7.834;2022-08-05T07:57:20;7.85;;;2.28;;
2546;SDS011;1283;47.982;7.834;2022-08-05T07:59:46;3.92;;;1.63;;
2546;SDS011;1283;47.982;7.834;2022-08-05T08:02:14;4.80;;;2.10;;
2546;SDS011;1283;47.982;7.834;2022-08-05T08:04:40;2.70;;;1.60;;
2546;SDS011;1283;47.982;7.834;2022-08-05T08:07:07;3.42;;;1.85;;
2546;SDS011;1283;47.982;7.834;2022-08-05T08:09:33;3.00;;;1.77;;
2546;SDS011;1283;47.982;7.834;2022-08-05T08:12:00;6.68;;;2.15;;
2546;SDS011;1283;47.982;7.834;2022-08-05T08:14:26;4.07;;;1.67;;
2546;SDS011;1283;47.982;7.834;2022-08-05T08:16:53;4.25;;;1.50;;
2546;SDS011;1283;47.982;7.834;2022-08-05T08:19:21;2.63;;;1.60;;
2546;SDS011;1283;47.982;7.834;2022-08-05T08:21:47;1.45;;;1.30;;
2546;SDS011;1283;47.982;7.834;2022-08-05T08:24:13;2.90;;;1.45;;
2546;SDS011;1283;47.982;7.834;2022-08-05T08:26:40;5.95;;;1.73;;
2546;SDS011;1283;47.982;7.834;2022-08-05T08:29:06;4.45;;;1.63;;
2546;SDS011;1283;47.982;7.834;2022-08-05T08:31:32;12.38;;;1.55;;
2546;SDS011;1283;47.982;7.834;2022-08-05T08:33:59;8.10;;;1.60;;
2546;SDS011;1283;47.982;7.834;2022-08-05T08:36:27;2.00;;;1.30;;
2546;SDS011;1283;47.982;7.834;2022-08-05T08:38:54;7.20;;;1.75;;
2546;SDS011;1283;47.982;7.834;2022-08-05T08:41:20;4.32;;;1.70;;
2546;SDS011;1283;47.982;7.834;2022-08-05T08:43:47;4.85;;;1.27;;
2546;SDS011;1283;47.982;7.834;2022-08-05T08:46:15;4.57;;;1.58;;
2546;SDS011;1283;47.982;7.834;2022-08-05T08:48:42;5.53;;;1.65;;
2546;SDS011;1283;47.982;7.834;2022-08-05T08:51:09;3.60;;;1.35;;
2546;SDS011;1283;47.982;7.834;2022-08-05T08:53:37;3.03;;;1.35;;
2546;SDS011;1283;47.982;7.834;2022-08-05T08:56:05;3.25;;;1.60;;
2546;SDS011;1283;47.982;7.834;2022-08-05T08:58:32;6.18;;;1.38;;
2546;SDS011;1283;47.982;7.834;2022-08-05T09:00:58;4.03;;;1.70;;
2546;SDS011;1283;47.982;7.834;2022-08-05T09:03:25;2.10;;;1.48;;
2546;SDS011;1283;47.982;7.834;2022-08-05T09:05:52;7.57;;;1.88;;
2546;SDS011;1283;47.982;7.834;2022-08-05T09:08:18;2.15;;;1.60;;
2546;SDS011;1283;47.982;7.834;2022-08-05T09:10:46;2.40;;;1.88;;
2546;SDS011;1283;47.982;7.834;2022-08-05T09:13:15;7.13;;;1.75;;
2546;SDS011;1283;47.982;7.834;2022-08-05T09:15:43;2.70;;;1.55;;
2546;SDS011;1283;47.982;7.834;2022-08-05T09:18:09;5.22;;;1.60;;
2546;SDS011;1283;47.982;7.834;2022-08-05T09:20:36;2.50;;;1.70;;
2546;SDS011;1283;47.982;7.834;2022-08-05T09:23:06;1.90;;;1.52;;
2546;SDS011;1283;47.982;7.834;2022-08-05T09:25:36;6.18;;;1.98;;
2546;SDS011;1283;47.982;7.834;2022-08-05T09:28:08;3.63;;;1.50;;
2546;SDS011;1283;47.982;7.834;2022-08-05T09:30:36;6.55;;;1.63;;
2546;SDS011;1283;47.982;7.834;2022-08-05T09:33:03;4.30;;;1.60;;
2546;SDS011;1283;47.982;7.834;2022-08-05T09:35:29;2.70;;;1.92;;
2546;SDS011;1283;47.982;7.834;2022-08-05T09:37:56;4.00;;;1.70;;
2546;SDS011;1283;47.982;7.834;2022-08-05T09:40:29;5.90;;;1.90;;
2546;SDS011;1283;47.982;7.834;2022-08-05T09:42:56;8.98;;;1.40;;
2546;SDS011;1283;47.982;7.834;2022-08-05T09:45:34;8.70;;;2.33;;
2546;SDS011;1283;47.982;7.834;2022-08-05T09:48:17;4.28;;;1.60;;
2546;SDS011;1283;47.982;7.834;2022-08-05T09:50:47;2.88;;;1.80;;
2546;SDS011;1283;47.982;7.834;2022-08-05T09:53:14;12.05;;;2.00;;
2546;SDS011;1283;47.982;7.834;2022-08-05T09:55:40;5.68;;;1.60;;
2546;SDS011;1283;47.982;7.834;2022-08-05T09:58:11;4.15;;;1.67;;
2546;SDS011;1283;47.982;7.834;2022-08-05T10:00:39;3.78;;;1.52;;
2546;SDS011;1283;47.982;7.834;2022-08-05T10:03:17;3.58;;;1.30;;
2546;SDS011;1283;47.982;7.834;2022-08-05T10:05:43;3.83;;;1.45;;
2546;SDS011;1283;47.982;7.834;2022-08-05T10:08:10;3.92;;;1.80;;
2546;SDS011;1283;47.982;7.834;2022-08-05T10:10:37;2.30;;;1.58;;
2546;SDS011;1283;47.982;7.834;2022-08-05T10:13:05;2.20;;;1.98;;
2546;SDS011;1283;47.982;7.834;2022-08-05T10:15:32;4.60;;;1.88;;
2546;SDS011;1283;47.982;7.834;2022-08-05T10:18:08;5.35;;;1.55;;
2546;SDS011;1283;47.982;7.834;2022-08-05T10:20:36;2.55;;;1.50;;
2546;SDS011;1283;47.982;7.834;2022-08-05T10:23:05;4.05;;;1.70;;
2546;SDS011;1283;47.982;7.834;2022-08-05T10:25:32;11.55;;;1.60;;
2546;SDS011;1283;47.982;7.834;2022-08-05T10:27:59;10.18;;;1.80;;
2546;SDS011;1283;47.982;7.834;2022-08-05T10:30:26;4.68;;;1.75;;
2546;SDS011;1283;47.982;7.834;2022-08-05T10:32:53;8.32;;;2.20;;
2546;SDS011;1283;47.982;7.834;2022-08-05T10:35:21;11.80;;;1.83;;
2546;SDS011;1283;47.982;7.834;2022-08-05T10:37:48;3.70;;;1.60;;
2546;SDS011;1283;47.982;7.834;2022-08-05T10:40:17;6.05;;;2.10;;
2546;SDS011;1283;47.982;7.834;2022-08-05T10:42:46;5.88;;;1.65;;
2546;SDS011;1283;47.982;7.834;2022-08-05T10:45:20;2.47;;;1.70;;
2546;SDS011;1283;47.982;7.834;2022-08-05T10:47:50;3.95;;;1.58;;
2546;SDS011;1283;47.982;7.834;2022-08-05T10:50:16;7.32;;;1.90;;
2546;SDS011;1283;47.982;7.834;2022-08-05T10:52:44;6.35;;;2.05;;
2546;SDS011;1283;47.982;7.834;2022-08-05T10:55:17;5.82;;;1.95;;
2546;SDS011;1283;47.982;7.834;2022-08-05T10:57:44;5.97;;;2.00;;
2546;SDS011;1283;47.982;7.834;2022-08-05T11:00:12;3.80;;;1.90;;
2546;SDS011;1283;47.982;7.834;2022-08-05T11:05:42;3.22;;;2.00;;
2546;SDS011;1283;47.982;7.834;2022-08-05T11:08:32;6.20;;;1.85;;
2546;SDS011;1283;47.982;7.834;2022-08-05T11:13:58;3.33;;;1.75;;
2546;SDS011;1283;47.982;7.834;2022-08-05T11:16:27;14.93;;;1.90;;
2546;SDS011;1283;47.982;7.834;2022-08-05T11:21:52;7.97;;;1.50;;
2546;SDS011;1283;47.982;7.834;2022-08-05T11:24:20;3.78;;;1.65;;
2546;SDS011;1283;47.982;7.834;2022-08-05T11:26:50;5.43;;;1.83;;
2546;SDS011;1283;47.982;7.834;2022-08-05T11:29:58;2.60;;;1.63;;
2546;SDS011;1283;47.982;7.834;2022-08-05T11:32:26;6.30;;;1.75;;
2546;SDS011;1283;47.982;7.834;2022-08-05T11:34:53;7.88;;;1.80;;
2546;SDS011;1283;47.982;7.834;2022-08-05T11:40:08;4.65;;;1.92;;
2546;SDS011;1283;47.982;7.834;2022-08-05T11:42:34;3.88;;;1.60;;
2546;SDS011;1283;47.982;7.834;2022-08-05T11:45:04;11.10;;;1.80;;
2546;SDS011;1283;47.982;7.834;2022-08-05T11:47:31;2.63;;;1.52;;
2546;SDS011;1283;47.982;7.834;2022-08-05T11:50:00;3.10;;;1.73;;
2546;SDS011;1283;47.982;7.834;2022-08-05T11:52:28;6.05;;;1.98;;
2546;SDS011;1283;47.982;7.834;2022-08-05T11:54:54;6.25;;;1.85;;
2546;SDS011;1283;47.982;7.834;2022-08-05T11:57:27;6.07;;;1.98;;
2546;SDS011;1283;47.982;7.834;2022-08-05T11:59:54;6.13;;;1.95;;
2546;SDS011;1283;47.982;7.834;2022-08-05T12:02:24;5.28;;;1.75;;
2546;SDS011;1283;47.982;7.834;2022-08-05T12:04:52;11.77;;;2.00;;
2546;SDS011;1283;47.982;7.834;2022-08-05T12:07:19;7.47;;;2.05;;
2546;SDS011;1283;47.982;7.834;2022-08-05T12:09:46;7.13;;;1.90;;
2546;SDS011;1283;47.982;7.834;2022-08-05T12:12:19;3.97;;;1.73;;
2546;SDS011;1283;47.982;7.834;2022-08-05T12:14:48;2.92;;;1.73;;
2546;SDS011;1283;47.982;7.834;2022-08-05T12:17:14;3.28;;;2.00;;
2546;SDS011;1283;47.982;7.834;2022-08-05T12:19:42;2.20;;;2.00;;
2546;SDS011;1283;47.982;7.834;2022-08-05T12:22:09;6.90;;;2.13;;
2546;SDS011;1283;47.982;7.834;2022-08-05T12:24:39;3.22;;;2.00;;
2546;SDS011;1283;47.982;7.834;2022-08-05T12:27:06;4.97;;;1.88;;
2546;SDS011;1283;47.982;7.834;2022-08-05T12:29:32;8.10;;;2.08;;
2546;SDS011;1283;47.982;7.834;2022-08-05T12:32:01;2.42;;;1.90;;
2546;SDS011;1283;47.982;7.834;2022-08-05T12:34:29;6.82;;;2.00;;
2546;SDS011;1283;47.982;7.834;2022-08-05T12:36:57;5.03;;;1.90;;
2546;SDS011;1283;47.982;7.834;2022-08-05T12:39:25;2.65;;;2.00;;
2546;SDS011;1283;47.982;7.834;2022-08-05T12:41:56;4.63;;;2.00;;
2546;SDS011;1283;47.982;7.834;2022-08-05T12:44:22;2.40;;;1.70;;
2546;SDS011;1283;47.982;7.834;2022-08-05T12:46:50;2.05;;;1.63;;
2546;SDS011;1283;47.982;7.834;2022-08-05T12:49:19;14.70;;;2.28;;
2546;SDS011;1283;47.982;7.834;2022-08-05T12:51:47;3.15;;;2.08;;
2546;SDS011;1283;47.982;7.834;2022-08-05T12:54:18;4.03;;;2.30;;
2546;SDS011;1283;47.982;7.834;2022-08-05T12:56:47;3.55;;;1.98;;
2546;SDS011;1283;47.982;7.834;2022-08-05T12:59:16;6.05;;;1.90;;
2546;SDS011;1283;47.982;7.834;2022-08-05T13:01:44;11.32;;;1.92;;
2546;SDS011;1283;47.982;7.834;2022-08-05T13:04:11;3.95;;;1.90;;
2546;SDS011;1283;47.982;7.834;2022-08-05T13:06:41;3.05;;;2.00;;
2546;SDS011;1283;47.982;7.834;2022-08-05T13:09:08;3.25;;;2.00;;
2546;SDS011;1283;47.982;7.834;2022-08-05T13:11:39;3.38;;;2.00;;
2546;SDS011;1283;47.982;7.834;2022-08-05T13:14:10;8.18;;;2.03;;
2546;SDS011;1283;47.982;7.834;2022-08-05T13:16:44;6.32;;;2.00;;
2546;SDS011;1283;47.982;7.834;2022-08-05T13:19:15;3.70;;;2.00;;
2546;SDS011;1283;47.982;7.834;2022-08-05T13:21:45;4.55;;;2.10;;
2546;SDS011;1283;47.982;7.834;2022-08-05T13:24:12;2.25;;;2.00;;
2546;SDS011;1283;47.982;7.834;2022-08-05T13:26:39;2.15;;;1.60;;
2546;SDS011;1283;47.982;7.834;2022-08-05T13:29:05;5.78;;;1.88;;
2546;SDS011;1283;47.982;7.834;2022-08-05T13:31:32;2.83;;;1.80;;
2546;SDS011;1283;47.982;7.834;2022-08-05T13:33:58;3.67;;;2.03;;
2546;SDS011;1283;47.982;7.834;2022-08-05T13:36:24;3.00;;;2.00;;
2546;SDS011;1283;47.982;7.834;2022-08-05T13:38:52;3.28;;;2.28;;
2546;SDS011;1283;47.982;7.834;2022-08-05T13:41:19;2.40;;;1.92;;
2546;SDS011;1283;47.982;7.834;2022-08-05T13:43:46;4.35;;;2.28;;
2546;SDS011;1283;47.982;7.834;2022-08-05T13:46:13;3.35;;;2.10;;
2546;SDS011;1283;47.982;7.834;2022-08-05T13:48:39;7.00;;;2.10;;
2546;SDS011;1283;47.982;7.834;2022-08-05T13:51:06;12.65;;;2.28;;
2546;SDS011;1283;47.982;7.834;2022-08-05T13:53:33;2.83;;;2.35;;
2546;SDS011;1283;47.982;7.834;2022-08-05T13:56:00;8.38;;;2.20;;
2546;SDS011;1283;47.982;7.834;2022-08-05T13:58:27;4.13;;;1.92;;
2546;SDS011;1283;47.982;7.834;2022-08-05T14:00:54;4.90;;;2.00;;
2546;SDS011;1283;47.982;7.834;2022-08-05T14:03:21;3.90;;;2.35;;
2546;SDS011;1283;47.982;7.834;2022-08-05T14:05:47;4.53;;;2.03;;
2546;SDS011;1283;47.982;7.834;2022-08-05T14:08:13;4.10;;;2.00;;
2546;SDS011;1283;47.982;7.834;2022-08-05T14:10:40;6.53;;;2.50;;
2546;SDS011;1283;47.982;7.834;2022-08-05T14:13:08;4.88;;;2.25;;
2546;SDS011;1283;47.982;7.834;2022-08-05T14:15:35;4.03;;;2.40;;
2546;SDS011;1283;47.982;7.834;2022-08-05T14:18:01;6.45;;;2.25;;
2546;SDS011;1283;47.982;7.834;2022-08-05T14:20:28;4.45;;;2.03;;
2546;SDS011;1283;47.982;7.834;2022-08-05T14:22:54;2.40;;;1.75;;
2546;SDS011;1283;47.982;7.834;2022-08-05T14:25:21;2.63;;;2.30;;
2546;SDS011;1283;47.982;7.834;2022-08-05T14:27:48;4.32;;;1.75;;
2546;SDS011;1283;47.982;7.834;2022-08-05T14:30:17;9.63;;;1.90;;
2546;SDS011;1283;47.982;7.834;2022-08-05T14:32:43;5.00;;;2.20;;
2546;SDS011;1283;47.982;7.834;2022-08-05T14:35:10;3.35;;;2.30;;
2546;SDS011;1283;47.982;7.834;2022-08-05T14:37:37;4.50;;;2.15;;
2546;SDS011;1283;47.982;7.834;2022-08-05T14:40:04;4.10;;;2.63;;
2546;SDS011;1283;47.982;7.834;2022-08-05T14:42:31;5.45;;;2.40;;
2546;SDS011;1283;47.982;7.834;2022-08-05T14:44:57;6.93;;;1.88;;
2546;SDS011;1283;47.982;7.834;2022-08-05T14:47:25;5.43;;;2.30;;
2546;SDS011;1283;47.982;7.834;2022-08-05T14:49:52;13.25;;;2.97;;
2546;SDS011;1283;47.982;7.834;2022-08-05T14:52:18;4.63;;;1.90;;
2546;SDS011;1283;47.982;7.834;2022-08-05T14:54:45;8.38;;;2.67;;
2546;SDS011;1283;47.982;7.834;2022-08-05T14:57:11;6.00;;;2.70;;
2546;SDS011;1283;47.982;7.834;2022-08-05T14:59:38;5.45;;;2.30;;
2546;SDS011;1283;47.982;7.834;2022-08-05T15:02:04;14.40;;;2.10;;
2546;SDS011;1283;47.982;7.834;2022-08-05T15:04:32;12.55;;;2.55;;
2546;SDS011;1283;47.982;7.834;2022-08-05T15:07:00;8.73;;;2.42;;
2546;SDS011;1283;47.982;7.834;2022-08-05T15:09:26;3.08;;;2.20;;
2546;SDS011;1283;47.982;7.834;2022-08-05T15:11:52;4.10;;;2.30;;
2546;SDS011;1283;47.982;7.834;2022-08-05T15:14:21;13.13;;;2.42;;
2546;SDS011;1283;47.982;7.834;2022-08-05T15:16:47;5.85;;;2.50;;
2546;SDS011;1283;47.982;7.834;2022-08-05T15:19:14;11.82;;;2.60;;
2546;SDS011;1283;47.982;7.834;2022-08-05T15:21:41;5.00;;;2.50;;
2546;SDS011;1283;47.982;7.834;2022-08-05T15:24:08;5.57;;;2.30;;
2546;SDS011;1283;47.982;7.834;2022-08-05T15:26:34;9.02;;;2.75;;
2546;SDS011;1283;47.982;7.834;2022-08-05T15:29:01;8.82;;;3.13;;
2546;SDS011;1283;47.982;7.834;2022-08-05T15:31:27;6.75;;;2.92;;